createdAt,value
2017-08-17T00:01:58.412Z,4.20
2017-08-17T00:04:26.444Z,5.27
2017-08-17T00:06:54.500Z,5.90
2017-08-17T00:09:22.524Z,5.10
2017-08-17T00:11:50.552Z,4.67
2017-08-17T00:14:19.340Z,4.80
2017-08-17T00:16:47.372Z,4.23
2017-08-17T00:19:15.388Z,4.27
2017-08-17T00:21:43.436Z,4.87
2017-08-17T00:24:13.048Z,4.30
2017-08-17T00:26:41.088Z,4.63
2017-08-17T00:29:09.481Z,4.40
2017-08-17T00:31:37.483Z,4.00
2017-08-17T00:34:05.511Z,3.57
2017-08-17T00:36:41.971Z,4.00
2017-08-17T00:39:10.972Z,3.50
2017-08-17T00:41:39.655Z,4.30
2017-08-17T00:44:07.696Z,3.60
2017-08-17T00:46:35.732Z,3.80
2017-08-17T00:49:04.688Z,3.97
2017-08-17T00:51:33.679Z,4.13
2017-08-17T00:54:01.703Z,3.90
2017-08-17T00:56:30.640Z,4.07
2017-08-17T00:58:59.647Z,4.30
2017-08-17T01:01:27.755Z,3.83
2017-08-17T01:03:56.791Z,3.50
2017-08-17T01:06:24.827Z,4.07
2017-08-17T01:08:54.768Z,3.90
2017-08-17T01:11:23.799Z,4.13
2017-08-17T01:13:53.583Z,4.67
2017-08-17T01:16:25.526Z,4.90
2017-08-17T01:18:53.559Z,5.33
2017-08-17T01:21:22.603Z,5.57
2017-08-17T01:23:50.619Z,5.03
2017-08-17T01:26:18.655Z,5.20
2017-08-17T01:28:46.671Z,4.97
2017-08-17T01:31:14.699Z,4.97
2017-08-17T01:33:44.407Z,5.83
2017-08-17T01:36:13.191Z,5.10
2017-08-17T01:38:41.211Z,5.30
2017-08-17T01:41:10.255Z,5.77
2017-08-17T01:43:39.231Z,5.90
2017-08-17T01:46:07.255Z,6.50
2017-08-17T01:48:38.546Z,5.20
2017-08-17T01:51:06.563Z,6.67
2017-08-17T01:53:34.575Z,5.50
2017-08-17T01:56:03.606Z,5.10
2017-08-17T01:58:31.623Z,5.60
2017-08-17T02:00:59.634Z,4.40
2017-08-17T02:03:28.439Z,4.67
2017-08-17T02:05:56.462Z,5.00
2017-08-17T02:08:24.486Z,5.17
2017-08-17T02:10:52.523Z,3.70
2017-08-17T02:13:20.538Z,4.80
2017-08-17T02:15:54.610Z,5.60
2017-08-17T02:18:22.630Z,5.60
2017-08-17T02:20:51.558Z,4.70
2017-08-17T02:23:19.590Z,5.17
2017-08-17T02:25:47.622Z,5.50
2017-08-17T02:28:15.642Z,5.57
2017-08-17T02:30:43.674Z,5.33
2017-08-17T02:33:11.702Z,5.03
2017-08-17T02:35:40.722Z,5.20
2017-08-17T02:38:08.755Z,5.70
2017-08-17T02:40:36.774Z,6.30
2017-08-17T02:43:05.726Z,5.13
2017-08-17T02:45:33.766Z,5.37
2017-08-17T02:48:01.794Z,5.77
2017-08-17T02:50:31.786Z,5.80
2017-08-17T02:52:59.835Z,4.90
2017-08-17T02:55:28.853Z,5.00
2017-08-17T02:57:56.884Z,5.07
2017-08-17T03:00:25.962Z,5.97
2017-08-17T03:02:53.950Z,4.97
2017-08-17T03:05:25.966Z,5.53
2017-08-17T03:07:53.986Z,5.63
2017-08-17T03:10:22.006Z,5.97
2017-08-17T03:12:50.994Z,6.30
2017-08-17T03:15:19.009Z,7.03
2017-08-17T03:17:47.042Z,6.80
2017-08-17T03:20:15.082Z,6.20
2017-08-17T03:22:43.110Z,6.93
2017-08-17T03:25:11.138Z,6.60
2017-08-17T03:27:40.132Z,8.83
2017-08-17T03:30:12.794Z,7.93
2017-08-17T03:32:40.838Z,8.23
2017-08-17T03:35:09.861Z,9.83
2017-08-17T03:37:38.858Z,9.60
2017-08-17T03:40:06.910Z,9.13
2017-08-17T03:42:34.925Z,8.77
2017-08-17T03:45:02.961Z,9.30
2017-08-17T03:47:31.986Z,8.40
2017-08-17T03:50:00.778Z,9.17
2017-08-17T03:52:28.802Z,7.70
2017-08-17T03:54:57.821Z,8.40
2017-08-17T03:57:25.853Z,8.70
2017-08-17T03:59:54.877Z,7.80
2017-08-17T04:02:28.081Z,9.40
2017-08-17T04:04:56.873Z,6.93
2017-08-17T04:07:30.353Z,7.33
2017-08-17T04:09:58.377Z,8.27
2017-08-17T04:12:26.398Z,8.97
2017-08-17T04:14:54.437Z,8.27
2017-08-17T04:17:24.373Z,7.97
2017-08-17T04:19:52.393Z,8.00
2017-08-17T04:22:20.445Z,8.37
2017-08-17T04:24:48.497Z,7.90
2017-08-17T04:27:18.304Z,8.60
2017-08-17T04:29:46.362Z,8.67
2017-08-17T04:32:14.390Z,8.07
2017-08-17T04:34:42.417Z,8.30
2017-08-17T04:37:11.422Z,6.20
2017-08-17T04:39:39.450Z,6.10
2017-08-17T04:42:07.473Z,6.90
2017-08-17T04:44:35.505Z,6.43
2017-08-17T04:47:05.529Z,6.40
2017-08-17T04:49:33.567Z,5.40
2017-08-17T04:52:11.745Z,5.80
2017-08-17T04:54:39.776Z,6.37
2017-08-17T05:11:03.584Z,6.40
2017-08-17T05:13:31.605Z,6.30
2017-08-17T05:16:00.596Z,6.47
2017-08-17T05:18:30.632Z,6.90
2017-08-17T05:20:59.412Z,7.03
2017-08-17T05:23:28.209Z,7.17
2017-08-17T05:25:56.249Z,6.97
2017-08-17T05:28:25.252Z,7.13
2017-08-17T05:30:53.281Z,6.13
2017-08-17T05:33:24.489Z,5.70
2017-08-17T05:35:53.269Z,5.43
2017-08-17T05:38:21.293Z,5.37
2017-08-17T05:40:49.332Z,5.13
2017-08-17T05:43:17.361Z,5.23
2017-08-17T05:45:45.396Z,5.30
2017-08-17T05:48:13.425Z,5.00
2017-08-17T05:50:43.212Z,4.77
2017-08-17T05:53:11.280Z,5.40
2017-08-17T05:55:39.301Z,4.63
2017-08-17T05:58:07.345Z,5.00
2017-08-17T06:00:36.133Z,4.73
2017-08-17T06:03:04.181Z,5.50
2017-08-17T06:05:34.205Z,4.83
2017-08-17T06:08:03.192Z,4.80
2017-08-17T06:10:34.728Z,4.47
2017-08-17T06:13:06.296Z,5.30
2017-08-17T06:15:34.316Z,4.90
2017-08-17T06:18:02.337Z,4.03
2017-08-17T06:20:34.300Z,4.77
2017-08-17T06:23:02.312Z,4.13
2017-08-17T06:25:32.288Z,4.10
2017-08-17T06:28:03.539Z,4.33
2017-08-17T06:30:32.332Z,4.30
2017-08-17T06:33:01.116Z,3.93
2017-08-17T06:35:34.412Z,5.10
2017-08-17T06:38:04.224Z,5.00
2017-08-17T06:40:33.016Z,5.20
2017-08-17T06:43:03.364Z,4.53
2017-08-17T06:45:31.387Z,4.53
2017-08-17T06:47:59.404Z,4.53
2017-08-17T06:50:31.327Z,5.53
2017-08-17T06:53:02.880Z,4.90
2017-08-17T06:55:34.748Z,4.60
2017-08-17T06:58:04.540Z,4.27
2017-08-17T07:00:33.532Z,4.83
2017-08-17T07:03:01.564Z,4.50
2017-08-17T07:05:33.356Z,5.43
2017-08-17T07:08:01.396Z,4.00
2017-08-17T07:10:31.343Z,4.23
2017-08-17T07:12:59.360Z,5.50
2017-08-17T07:15:27.404Z,5.13
2017-08-17T07:17:55.428Z,5.00
2017-08-17T07:20:27.132Z,5.90
2017-08-17T07:22:56.104Z,5.50
2017-08-17T07:25:24.124Z,6.00
2017-08-17T07:27:52.244Z,6.20
2017-08-17T07:30:20.228Z,5.60
2017-08-17T07:32:49.236Z,6.67
2017-08-17T07:35:18.054Z,6.07
2017-08-17T07:37:49.779Z,6.43
2017-08-17T07:40:17.815Z,5.90
2017-08-17T07:42:46.819Z,5.57
2017-08-17T07:45:14.836Z,5.70
2017-08-17T07:47:42.864Z,5.10
2017-08-17T07:50:10.892Z,5.40
2017-08-17T07:52:39.919Z,5.57
2017-08-17T07:55:09.955Z,5.10
2017-08-17T07:57:38.735Z,5.67
2017-08-17T08:00:06.767Z,5.20
2017-08-17T08:02:34.807Z,5.10
2017-08-17T08:05:02.875Z,5.40
2017-08-17T08:07:30.908Z,4.53
2017-08-17T08:09:58.955Z,4.80
2017-08-17T08:12:26.984Z,3.93
2017-08-17T08:14:55.020Z,4.10
2017-08-17T08:17:23.992Z,4.00
2017-08-17T08:19:52.003Z,4.03
2017-08-17T08:22:24.663Z,4.70
2017-08-17T08:24:53.643Z,4.97
2017-08-17T08:27:23.686Z,5.13
2017-08-17T08:29:54.391Z,4.23
2017-08-17T08:32:22.414Z,4.63
2017-08-17T08:34:51.359Z,4.10
2017-08-17T08:37:19.383Z,4.17
2017-08-17T08:39:48.319Z,4.47
2017-08-17T08:42:16.371Z,4.53
2017-08-17T08:44:44.379Z,4.67
2017-08-17T08:47:15.082Z,4.90
2017-08-17T08:49:43.107Z,5.40
2017-08-17T08:52:11.127Z,5.47
2017-08-17T08:54:40.039Z,4.87
2017-08-17T08:57:09.871Z,5.03
2017-08-17T08:59:37.898Z,4.53
2017-08-17T09:02:05.930Z,5.17
2017-08-17T09:04:34.870Z,4.47
2017-08-17T09:07:02.894Z,5.30
2017-08-17T09:09:30.914Z,4.93
2017-08-17T09:11:59.715Z,4.20
2017-08-17T09:14:29.491Z,4.50
2017-08-17T09:16:58.511Z,4.67
2017-08-17T09:19:26.534Z,4.57
2017-08-17T09:21:55.542Z,4.40
2017-08-17T09:24:24.550Z,3.63
2017-08-17T09:26:53.551Z,4.57
2017-08-17T09:29:21.567Z,5.07
2017-08-17T09:31:49.591Z,4.97
2017-08-17T09:34:17.625Z,5.37
2017-08-17T09:36:47.554Z,4.53
2017-08-17T09:39:15.574Z,5.23
2017-08-17T09:41:44.486Z,4.87
2017-08-17T09:44:12.514Z,6.40
2017-08-17T09:46:41.302Z,4.33
2017-08-17T09:49:10.286Z,4.70
2017-08-17T09:51:38.298Z,5.00
2017-08-17T09:54:07.229Z,4.70
2017-08-17T09:56:36.246Z,4.53
2017-08-17T09:59:04.266Z,5.30
2017-08-17T10:01:32.274Z,4.43
2017-08-17T10:04:05.365Z,5.90
2017-08-17T10:06:37.102Z,5.13
2017-08-17T10:09:05.147Z,4.47
2017-08-17T10:11:33.153Z,4.60
2017-08-17T10:14:01.170Z,5.10
2017-08-17T10:16:29.210Z,4.90
2017-08-17T10:18:57.229Z,4.60
2017-08-17T10:21:25.258Z,4.50
2017-08-17T10:23:54.065Z,4.97
2017-08-17T10:26:33.113Z,4.50
2017-08-17T10:29:01.141Z,4.10
2017-08-17T10:31:29.921Z,4.53
2017-08-17T10:33:57.950Z,4.23
2017-08-17T10:36:25.997Z,4.30
2017-08-17T10:38:54.017Z,4.07
2017-08-17T10:41:23.010Z,4.30
2017-08-17T10:43:52.029Z,3.80
2017-08-17T10:46:20.813Z,4.23
2017-08-17T10:48:50.597Z,3.80
2017-08-17T10:51:19.550Z,4.53
2017-08-17T10:53:53.186Z,3.80
2017-08-17T10:56:23.213Z,3.67
2017-08-17T10:58:51.233Z,4.67
2017-08-17T11:01:20.178Z,3.80
2017-08-17T11:03:48.229Z,3.53
2017-08-17T11:06:16.274Z,3.80
2017-08-17T11:08:46.222Z,4.93
2017-08-17T11:11:14.265Z,4.63
2017-08-17T11:13:42.306Z,4.30
2017-08-17T11:16:10.338Z,4.37
2017-08-17T11:18:40.369Z,4.70
2017-08-17T11:21:08.397Z,3.97
2017-08-17T11:23:36.433Z,4.80
2017-08-17T11:26:04.481Z,3.93
2017-08-17T11:28:32.509Z,4.20
2017-08-17T11:31:00.530Z,4.53
2017-08-17T11:33:29.489Z,4.77
2017-08-17T11:35:57.511Z,5.17
2017-08-17T11:38:26.433Z,4.13
2017-08-17T11:40:55.363Z,4.10
2017-08-17T11:43:23.385Z,3.60
2017-08-17T11:45:52.401Z,4.33
2017-08-17T11:48:20.437Z,4.23
2017-08-17T11:50:48.462Z,4.47
2017-08-17T11:53:16.493Z,3.90
2017-08-17T11:55:45.533Z,4.73
2017-08-17T11:58:13.557Z,4.30
2017-08-17T12:00:45.169Z,4.20
2017-08-17T12:03:13.189Z,5.00
2017-08-17T12:08:09.259Z,3.80
2017-08-17T12:10:37.273Z,4.20
2017-08-17T12:13:05.293Z,4.30
2017-08-17T12:15:35.317Z,4.73
2017-08-17T12:18:03.344Z,4.30
2017-08-17T12:20:31.373Z,3.90
2017-08-17T12:22:59.420Z,4.40
2017-08-17T12:25:27.436Z,3.97
2017-08-17T12:27:58.208Z,3.53
2017-08-17T12:30:28.268Z,3.97
2017-08-17T12:32:56.304Z,3.97
2017-08-17T12:35:29.725Z,3.73
2017-08-17T12:38:00.444Z,3.30
2017-08-17T12:40:28.501Z,4.23
2017-08-17T12:42:57.425Z,3.97
2017-08-17T12:45:26.212Z,4.07
2017-08-17T12:47:59.888Z,3.93
2017-08-17T12:50:28.884Z,4.40
2017-08-17T12:52:56.909Z,4.60
2017-08-17T12:55:24.952Z,4.63
2017-08-17T12:57:52.992Z,4.20
2017-08-17T13:00:21.020Z,3.87
2017-08-17T13:02:50.076Z,4.40
2017-08-17T13:05:20.768Z,5.03
2017-08-17T13:07:48.792Z,4.60
2017-08-17T13:10:16.836Z,4.07
2017-08-17T13:12:48.473Z,5.00
2017-08-17T13:15:21.084Z,4.13
2017-08-17T13:17:49.885Z,4.30
2017-08-17T13:20:18.840Z,4.20
2017-08-17T13:22:47.773Z,5.20
2017-08-17T13:25:15.796Z,4.40
2017-08-17T13:27:43.864Z,4.30
2017-08-17T13:30:12.868Z,3.70
2017-08-17T13:32:44.200Z,4.70
2017-08-17T13:35:12.220Z,5.27
2017-08-17T13:37:41.204Z,3.87
2017-08-17T13:40:10.172Z,4.63
2017-08-17T13:42:38.192Z,4.90
2017-08-17T13:45:06.234Z,4.17
2017-08-17T13:47:35.024Z,4.80
2017-08-17T13:50:03.052Z,4.73
2017-08-17T13:52:31.076Z,4.40
2017-08-17T13:54:59.092Z,4.40
2017-08-17T13:57:27.124Z,4.43
2017-08-17T13:59:55.152Z,3.93
2017-08-17T14:02:24.940Z,4.27
2017-08-17T14:04:52.967Z,4.50
2017-08-17T14:07:20.994Z,4.80
2017-08-17T14:09:49.008Z,4.93
2017-08-17T14:12:17.944Z,5.03
2017-08-17T14:14:45.992Z,5.00
2017-08-17T14:17:14.004Z,4.60
2017-08-17T14:19:43.836Z,4.83
2017-08-17T14:22:12.064Z,4.80
2017-08-17T14:24:41.060Z,5.03
2017-08-17T14:27:09.283Z,5.90
2017-08-17T14:29:37.358Z,6.70
2017-08-17T14:32:06.328Z,7.53
2017-08-17T14:34:49.180Z,6.70
2017-08-17T14:37:17.204Z,7.33
2017-08-17T14:39:45.219Z,7.40
2017-08-17T14:42:14.272Z,8.23
2017-08-17T14:44:42.292Z,6.83
2017-08-17T14:47:11.307Z,6.30
2017-08-17T14:49:39.397Z,6.70
2017-08-17T14:52:07.660Z,6.17
2017-08-17T14:54:37.671Z,5.50
2017-08-17T14:57:05.696Z,5.60
2017-08-17T14:59:33.719Z,5.13
2017-08-17T15:02:02.715Z,5.70
2017-08-17T15:04:31.707Z,5.20
2017-08-17T15:07:01.724Z,5.27
2017-08-17T15:09:29.744Z,5.57
2017-08-17T15:11:58.692Z,4.77
2017-08-17T15:14:26.716Z,5.00
2017-08-17T15:16:56.659Z,4.70
2017-08-17T15:19:26.727Z,4.90
2017-08-17T15:21:56.708Z,4.17
2017-08-17T15:24:24.727Z,4.50
2017-08-17T15:26:52.771Z,4.87
2017-08-17T15:29:21.559Z,3.53
2017-08-17T15:31:51.332Z,4.90
2017-08-17T15:34:19.483Z,4.50
2017-08-17T15:36:47.499Z,4.27
2017-08-17T15:39:16.484Z,4.73
2017-08-17T15:41:44.523Z,4.33
2017-08-17T15:44:13.531Z,4.30
2017-08-17T15:46:42.523Z,4.77
2017-08-17T15:49:10.572Z,4.17
2017-08-17T15:51:38.579Z,5.77
2017-08-17T15:54:06.599Z,8.17
2017-08-17T15:56:40.047Z,7.20
2017-08-17T15:59:09.039Z,12.03
2017-08-17T16:01:37.055Z,4.60
2017-08-17T16:04:05.087Z,6.27
2017-08-17T16:06:33.223Z,6.40
2017-08-17T16:09:01.231Z,6.90
2017-08-17T16:11:32.782Z,9.27
2017-08-17T16:14:01.743Z,5.23
2017-08-17T16:16:31.771Z,8.77
2017-08-17T16:19:00.790Z,7.50
2017-08-17T16:21:28.802Z,6.73
2017-08-17T16:24:01.411Z,5.63
2017-08-17T16:26:30.397Z,5.57
2017-08-17T16:28:58.411Z,5.50
2017-08-17T16:31:26.443Z,5.40
2017-08-17T16:33:54.455Z,6.87
2017-08-17T16:36:24.263Z,5.67
2017-08-17T16:38:52.294Z,5.70
2017-08-17T16:41:26.095Z,5.33
2017-08-17T16:43:54.111Z,4.80
2017-08-17T16:46:22.131Z,6.47
2017-08-17T16:48:50.135Z,5.50
2017-08-17T16:51:18.179Z,6.17
2017-08-17T16:53:46.183Z,7.00
2017-08-17T16:56:15.058Z,5.77
2017-08-17T16:58:43.863Z,7.73
2017-08-17T17:01:11.895Z,5.53
2017-08-17T17:03:40.811Z,16.33
2017-08-17T17:06:10.607Z,22.37
2017-08-17T17:08:40.394Z,9.17
2017-08-17T17:11:08.415Z,5.87
2017-08-17T17:13:36.446Z,6.80
2017-08-17T17:16:04.478Z,13.10
2017-08-17T17:18:32.518Z,22.17
2017-08-17T17:21:02.308Z,13.13
2017-08-17T17:23:30.326Z,8.53
2017-08-17T17:25:58.342Z,6.07
2017-08-17T17:28:31.627Z,5.67
2017-08-17T17:30:59.642Z,5.80
2017-08-17T17:33:31.062Z,6.30
2017-08-17T17:36:01.754Z,5.60
2017-08-17T17:38:30.795Z,6.87
2017-08-17T17:40:59.582Z,6.40
2017-08-17T17:43:31.595Z,9.97
2017-08-17T17:46:03.303Z,9.90
2017-08-17T17:48:32.099Z,11.07
2017-08-17T17:51:00.130Z,8.03
2017-08-17T17:53:28.142Z,7.50
2017-08-17T17:55:56.178Z,7.77
2017-08-17T17:58:24.186Z,6.23
2017-08-17T18:00:52.206Z,6.00
2017-08-17T18:03:21.211Z,6.47
2017-08-17T18:05:52.854Z,5.83
2017-08-17T18:08:24.434Z,6.33
2017-08-17T18:10:54.222Z,5.50
2017-08-17T18:13:27.722Z,5.70
2017-08-17T18:15:55.742Z,5.60
2017-08-17T18:18:23.766Z,6.43
2017-08-17T18:20:53.594Z,5.87
2017-08-17T18:23:22.378Z,5.53
2017-08-17T18:25:50.398Z,6.13
2017-08-17T18:28:18.430Z,6.47
2017-08-17T18:30:47.398Z,6.37
2017-08-17T18:33:16.386Z,5.90
2017-08-17T18:35:44.406Z,6.07
2017-08-17T18:38:12.431Z,6.57
2017-08-17T18:40:40.457Z,6.60
2017-08-17T18:43:08.501Z,6.50
2017-08-17T18:45:37.305Z,7.50
2017-08-17T18:48:05.338Z,6.00
2017-08-17T18:50:34.269Z,7.13
2017-08-17T18:53:03.215Z,7.50
2017-08-17T18:55:31.289Z,6.70
2017-08-17T18:57:59.313Z,6.37
2017-08-17T19:00:28.390Z,6.80
2017-08-17T19:02:57.325Z,6.47
2017-08-17T19:05:25.369Z,7.90
2017-08-17T19:07:53.385Z,7.17
2017-08-17T19:10:21.401Z,6.60
2017-08-17T19:12:50.389Z,7.20
2017-08-17T19:15:19.325Z,6.50
2017-08-17T19:17:48.341Z,7.93
2017-08-17T19:20:18.357Z,8.30
2017-08-17T19:22:47.149Z,8.00
2017-08-17T19:25:15.177Z,8.50
2017-08-17T19:27:44.205Z,7.30
2017-08-17T19:30:14.005Z,7.67
2017-08-17T19:32:42.041Z,7.40
2017-08-17T19:35:10.257Z,8.03
2017-08-17T19:37:40.066Z,7.90
2017-08-17T19:40:08.154Z,9.33
2017-08-17T19:42:36.997Z,8.00
2017-08-17T19:45:05.001Z,7.90
2017-08-17T19:47:33.790Z,8.87
2017-08-17T19:50:01.821Z,8.40
2017-08-17T19:52:33.641Z,12.10
2017-08-17T19:55:01.657Z,12.40
2017-08-17T19:57:29.689Z,10.80
2017-08-17T19:59:59.661Z,8.40
2017-08-17T20:02:28.677Z,8.30
2017-08-17T20:04:57.473Z,9.03
2017-08-17T20:07:26.260Z,8.07
2017-08-17T20:09:54.309Z,8.43
2017-08-17T20:12:22.344Z,9.10
2017-08-17T20:14:50.376Z,8.33
2017-08-17T20:17:18.416Z,8.97
2017-08-17T20:19:46.441Z,8.53
2017-08-17T20:22:14.460Z,8.00
2017-08-17T20:24:43.465Z,10.00
2017-08-17T20:27:14.164Z,9.13
2017-08-17T20:29:42.201Z,10.17
2017-08-17T20:32:10.249Z,10.10
2017-08-17T20:34:38.277Z,9.23
2017-08-17T20:37:06.293Z,9.70
2017-08-17T20:39:34.341Z,9.27
2017-08-17T20:42:03.141Z,9.57
2017-08-17T20:44:31.932Z,9.20
2017-08-17T20:47:02.701Z,10.33
2017-08-17T20:49:30.729Z,12.23
2017-08-17T20:51:58.752Z,9.57
2017-08-17T20:54:27.796Z,8.97
2017-08-17T20:56:56.584Z,9.77
2017-08-17T20:59:26.368Z,9.30
2017-08-17T21:01:54.400Z,10.47
2017-08-17T21:04:22.429Z,8.50
2017-08-17T21:06:50.456Z,9.50
2017-08-17T21:09:18.544Z,9.70
2017-08-17T21:11:47.548Z,9.63
2017-08-17T21:14:15.572Z,8.20
2017-08-17T21:16:44.608Z,9.50
2017-08-17T21:19:14.614Z,8.60
2017-08-17T21:21:43.608Z,9.40
2017-08-17T21:24:11.644Z,8.87
2017-08-17T21:26:39.676Z,9.97
2017-08-17T21:29:08.467Z,9.67
2017-08-17T21:31:39.200Z,9.40
2017-08-17T21:34:09.192Z,9.10
2017-08-17T21:36:37.220Z,10.60
2017-08-17T21:39:05.260Z,10.77
2017-08-17T21:41:33.292Z,11.70
2017-08-17T21:44:02.300Z,11.83
2017-08-17T21:46:33.039Z,9.30
2017-08-17T21:49:01.063Z,9.43
2017-08-17T21:51:29.090Z,8.83
2017-08-17T21:53:57.144Z,9.80
2017-08-17T21:56:27.160Z,9.07
2017-08-17T21:58:55.192Z,11.37
2017-08-17T22:01:24.235Z,13.50
2017-08-17T22:03:52.259Z,8.43
2017-08-17T22:06:20.291Z,9.30
2017-08-17T22:08:48.364Z,10.60
2017-08-17T22:11:16.396Z,11.10
2017-08-17T22:13:44.427Z,10.70
2017-08-17T22:16:12.483Z,10.50
2017-08-17T22:18:40.516Z,11.40
2017-08-17T22:21:08.539Z,10.23
2017-08-17T22:23:39.692Z,10.67
2017-08-17T22:26:08.731Z,10.63
2017-08-17T22:28:37.639Z,9.47
2017-08-17T22:31:07.635Z,8.80
2017-08-17T22:33:37.427Z,9.10
2017-08-17T22:36:06.431Z,9.40
2017-08-17T22:38:34.463Z,9.07
2017-08-17T22:41:02.487Z,7.73
2017-08-17T22:43:32.279Z,8.73
2017-08-17T22:46:00.351Z,9.63
2017-08-17T22:48:29.259Z,9.20
2017-08-17T22:50:57.287Z,9.27
2017-08-17T22:53:26.239Z,10.57
2017-08-17T22:55:54.259Z,9.23
2017-08-17T22:58:23.259Z,10.40
2017-08-17T23:00:51.443Z,10.80
2017-08-17T23:03:20.235Z,10.37
2017-08-17T23:05:50.042Z,10.90
2017-08-17T23:08:20.071Z,10.40
2017-08-17T23:10:48.863Z,10.13
2017-08-17T23:13:17.655Z,10.07
2017-08-17T23:15:48.367Z,10.57
2017-08-17T23:18:21.655Z,9.90
2017-08-17T23:20:51.679Z,10.60
2017-08-17T23:23:20.470Z,9.90
2017-08-17T23:25:48.502Z,10.63
2017-08-17T23:28:16.558Z,11.00
2017-08-17T23:30:44.594Z,10.40
2017-08-17T23:33:15.310Z,10.00
2017-08-17T23:35:45.118Z,10.13
2017-08-17T23:38:13.150Z,10.00
2017-08-17T23:40:41.178Z,10.50
2017-08-17T23:43:09.258Z,10.33
2017-08-17T23:45:37.282Z,10.10
2017-08-17T23:48:05.363Z,10.50
2017-08-17T23:50:34.366Z,10.50
2017-08-17T23:53:03.351Z,9.80
2017-08-17T23:55:31.383Z,10.97
2017-08-17T23:57:59.423Z,11.13
